< Typhoon 197814 1978 Season Typhoon 197816 >
Typhoon 197815 (FAYE)
General InformationTrack Information on Google MapsDetailed Wind Information || Disaster Info.ResourceGoogle EarthGE AnimationAtom FeedGeoJSON
Detalied Best Track (Time Zone = UTC)
Year Month Day Hour Lat. Long. Pressure (hPa) Wind (kt) Class Image Chart
1978 8 27 06 10.5 149.0 1006 0 2 -- Chart
1978 8 27 12 11.2 148.0 1004 0 2 -- Chart
1978 8 27 18 12.0 147.0 1002 0 2 -- Chart
1978 8 28 00 12.8 146.1 1000 0 2 -- Chart
1978 8 28 06 14.1 145.5 998 0 2 -- Chart
1978 8 28 12 15.2 145.1 998 35 3 -- Chart
1978 8 28 18 16.1 145.0 998 35 3 -- Chart
1978 8 29 00 16.7 145.1 996 45 3 -- Chart
1978 8 29 06 17.7 145.3 994 45 3 -- Chart
1978 8 29 12 18.6 145.6 992 45 3 -- Chart
1978 8 29 18 19.2 146.2 990 45 3 -- Chart
1978 8 30 00 19.2 146.7 985 45 3 -- Chart
1978 8 30 06 19.1 147.3 985 55 4 -- Chart
1978 8 30 12 18.8 147.9 985 55 4 -- Chart
1978 8 30 18 18.6 148.6 985 55 4 -- Chart
1978 8 31 00 18.2 148.9 985 55 4 -- Chart
1978 8 31 06 17.6 148.7 985 55 4 -- Chart
1978 8 31 12 17.4 148.5 985 55 4 -- Chart
1978 8 31 18 17.1 148.0 985 55 4 -- Chart
1978 9 1 00 17.0 147.4 985 55 4 -- Chart
1978 9 1 06 17.2 146.7 980 65 5 -- Chart
1978 9 1 12 17.7 146.0 975 65 5 -- Chart
1978 9 1 18 18.3 145.3 970 65 5 -- Chart
1978 9 2 00 19.0 144.9 950 70 5 -- Chart
1978 9 2 06 19.8 144.4 935 90 5 -- Chart
1978 9 2 12 20.7 143.7 935 90 5 -- Chart
1978 9 2 18 21.6 142.5 935 90 5 -- Chart
1978 9 3 00 22.2 141.3 945 90 5 -- Chart
1978 9 3 06 23.0 140.1 965 80 5 -- Chart
1978 9 3 12 24.1 138.9 980 80 5 -- Chart
1978 9 3 18 25.0 137.8 985 70 5 -- Chart
1978 9 4 00 25.8 136.9 985 60 4 -- Chart
1978 9 4 06 27.1 135.8 985 60 4 -- Chart
1978 9 4 12 27.9 135.0 990 60 4 -- Chart
1978 9 4 18 28.5 134.7 990 50 4 -- Chart
1978 9 5 00 29.2 134.7 980 55 4 -- Chart
1978 9 5 06 29.7 135.5 980 55 4 -- Chart
1978 9 5 12 30.0 136.5 975 55 4 -- Chart
1978 9 5 18 30.2 137.2 970 70 5 -- Chart
1978 9 6 00 30.2 138.2 970 70 5 -- Chart
1978 9 6 06 30.2 139.1 970 70 5 -- Chart
1978 9 6 12 30.3 139.7 975 70 5 -- Chart
1978 9 6 18 30.5 140.0 980 65 5 -- Chart
1978 9 7 00 30.7 140.5 985 50 4 -- Chart
1978 9 7 06 30.7 141.1 992 45 3 -- Chart
1978 9 7 12 30.4 141.5 992 40 3 -- Chart
1978 9 7 18 30.2 142.0 992 40 3 -- Chart
1978 9 8 00 30.4 142.6 996 40 3 -- Chart
1978 9 8 06 30.7 143.5 996 40 3 -- Chart
1978 9 8 12 31.0 144.2 996 40 3 -- Chart
1978 9 8 18 31.2 145.1 996 40 3 -- Chart
1978 9 9 00 31.5 146.0 996 40 3 -- Chart
1978 9 9 06 31.7 146.5 998 40 3 -- Chart
1978 9 9 12 32.0 147.1 998 35 3 -- Chart
1978 9 9 18 32.2 147.7 1000 35 3 -- Chart
1978 9 10 00 32.7 148.4 1004 0 2 -- Chart
1978 9 10 06 34.0 149.5 1004 0 2 -- Chart
1978 9 10 12 35.0 150.9 1004 0 2 -- Chart
1978 9 10 18 36.0 152.0 1006 0 2 -- Chart
1978 9 11 00 37.0 154.0 1008 0 2 -- Chart
1978 9 11 06 37.5 156.0 1008 0 2 -- Chart
Japan Meteorological Agency Best Track Data | Correction Date : 1992-10-21
< Typhoon 197814 1978 Season Typhoon 197816 >

Help